Tomberlin, Arkansas
Current Conditions -  °F | °C
As of 4:15 AM on Wednesday 26 Nov 2014 (Local Time) from KSGT Reporting Station
Clear Clear  
Wind Chill: 33°   Ceiling: Unl
Heat Index: 37°   Visibility: 10mi
Dew Point: 30°   Wind: 6mph
Humidity: 75%   Direction: 140°SE
Pressure: 30.12"   Gusts: NA
Location:  34.5894°N, 91.9107°W
Report Text: KSGT 261015Z AUTO 14005KT 10SM CLR 03/M01 A3012 RMK AO1
Loading
Personal Weather Stations






























Interactive Weather Map New forecast layout! Learn more

10-Day Weather Forecast

Advertisements
Track Severe Weather on mobile